sensor_id;sensor_type;location;lat;lon;timestamp;P1;durP1;ratioP1;P2;durP2;ratioP2
21848;SDS011;11089;49.852;19.700;2023-05-20T00:01:39;29.25;;;13.13;;
21848;SDS011;11089;49.852;19.700;2023-05-20T00:04:40;27.38;;;13.13;;
21848;SDS011;11089;49.852;19.700;2023-05-20T00:07:41;25.98;;;12.95;;
21848;SDS011;11089;49.852;19.700;2023-05-20T00:10:42;26.13;;;12.57;;
21848;SDS011;11089;49.852;19.700;2023-05-20T00:13:43;22.38;;;11.48;;
21848;SDS011;11089;49.852;19.700;2023-05-20T00:16:44;24.17;;;11.77;;
21848;SDS011;11089;49.852;19.700;2023-05-20T00:19:45;25.13;;;12.52;;
21848;SDS011;11089;49.852;19.700;2023-05-20T00:22:46;25.88;;;11.77;;
21848;SDS011;11089;49.852;19.700;2023-05-20T00:25:47;23.38;;;11.93;;
21848;SDS011;11089;49.852;19.700;2023-05-20T00:28:48;24.75;;;12.00;;
21848;SDS011;11089;49.852;19.700;2023-05-20T00:31:49;23.88;;;12.20;;
21848;SDS011;11089;49.852;19.700;2023-05-20T00:34:57;24.05;;;13.15;;
21848;SDS011;11089;49.852;19.700;2023-05-20T00:37:59;24.52;;;12.90;;
21848;SDS011;11089;49.852;19.700;2023-05-20T00:41:00;21.58;;;11.48;;
21848;SDS011;11089;49.852;19.700;2023-05-20T00:44:01;25.23;;;12.60;;
21848;SDS011;11089;49.852;19.700;2023-05-20T00:47:02;24.30;;;11.93;;
21848;SDS011;11089;49.852;19.700;2023-05-20T00:50:03;20.92;;;11.93;;
21848;SDS011;11089;49.852;19.700;2023-05-20T00:53:05;24.20;;;12.48;;
21848;SDS011;11089;49.852;19.700;2023-05-20T00:56:06;22.23;;;12.13;;
21848;SDS011;11089;49.852;19.700;2023-05-20T00:59:08;22.52;;;12.18;;
21848;SDS011;11089;49.852;19.700;2023-05-20T01:02:09;24.92;;;12.57;;
21848;SDS011;11089;49.852;19.700;2023-05-20T01:05:10;22.85;;;12.00;;
21848;SDS011;11089;49.852;19.700;2023-05-20T01:08:11;22.95;;;11.90;;
21848;SDS011;11089;49.852;19.700;2023-05-20T01:14:35;26.30;;;12.65;;
21848;SDS011;11089;49.852;19.700;2023-05-20T01:17:44;25.35;;;12.88;;
21848;SDS011;11089;49.852;19.700;2023-05-20T01:20:46;21.95;;;11.38;;
21848;SDS011;11089;49.852;19.700;2023-05-20T01:23:50;23.73;;;12.27;;
21848;SDS011;11089;49.852;19.700;2023-05-20T01:26:51;21.88;;;11.88;;
21848;SDS011;11089;49.852;19.700;2023-05-20T01:29:53;23.30;;;12.23;;
21848;SDS011;11089;49.852;19.700;2023-05-20T01:32:57;22.20;;;11.68;;
21848;SDS011;11089;49.852;19.700;2023-05-20T01:36:00;24.75;;;12.52;;
21848;SDS011;11089;49.852;19.700;2023-05-20T01:39:01;22.88;;;12.55;;
21848;SDS011;11089;49.852;19.700;2023-05-20T01:42:04;28.13;;;12.07;;
21848;SDS011;11089;49.852;19.700;2023-05-20T01:45:08;23.08;;;11.73;;
21848;SDS011;11089;49.852;19.700;2023-05-20T01:48:09;24.38;;;11.52;;
21848;SDS011;11089;49.852;19.700;2023-05-20T01:51:11;25.20;;;11.95;;
21848;SDS011;11089;49.852;19.700;2023-05-20T01:54:12;19.98;;;11.55;;
21848;SDS011;11089;49.852;19.700;2023-05-20T01:57:13;23.25;;;11.65;;
21848;SDS011;11089;49.852;19.700;2023-05-20T02:00:14;23.75;;;11.57;;
21848;SDS011;11089;49.852;19.700;2023-05-20T02:03:15;21.25;;;11.00;;
21848;SDS011;11089;49.852;19.700;2023-05-20T02:06:16;21.92;;;11.13;;
21848;SDS011;11089;49.852;19.700;2023-05-20T02:09:17;19.75;;;10.57;;
21848;SDS011;11089;49.852;19.700;2023-05-20T02:12:18;19.83;;;10.52;;
21848;SDS011;11089;49.852;19.700;2023-05-20T02:15:19;19.55;;;10.85;;
21848;SDS011;11089;49.852;19.700;2023-05-20T02:18:19;19.50;;;10.13;;
21848;SDS011;11089;49.852;19.700;2023-05-20T02:21:21;20.48;;;10.15;;
21848;SDS011;11089;49.852;19.700;2023-05-20T02:24:22;19.63;;;9.60;;
21848;SDS011;11089;49.852;19.700;2023-05-20T02:27:23;19.90;;;10.35;;
21848;SDS011;11089;49.852;19.700;2023-05-20T02:30:24;22.77;;;11.77;;
21848;SDS011;11089;49.852;19.700;2023-05-20T02:33:26;18.63;;;9.35;;
21848;SDS011;11089;49.852;19.700;2023-05-20T02:36:28;20.80;;;10.88;;
21848;SDS011;11089;49.852;19.700;2023-05-20T02:39:29;20.08;;;9.77;;
21848;SDS011;11089;49.852;19.700;2023-05-20T02:42:29;19.88;;;9.23;;
21848;SDS011;11089;49.852;19.700;2023-05-20T02:45:30;17.80;;;10.05;;
21848;SDS011;11089;49.852;19.700;2023-05-20T02:48:31;20.00;;;9.10;;
21848;SDS011;11089;49.852;19.700;2023-05-20T02:51:32;17.65;;;9.50;;
21848;SDS011;11089;49.852;19.700;2023-05-20T02:54:33;16.15;;;9.60;;
21848;SDS011;11089;49.852;19.700;2023-05-20T02:57:34;14.07;;;8.50;;
21848;SDS011;11089;49.852;19.700;2023-05-20T03:00:37;18.85;;;8.93;;
21848;SDS011;11089;49.852;19.700;2023-05-20T03:03:39;16.33;;;8.60;;
21848;SDS011;11089;49.852;19.700;2023-05-20T03:06:41;15.75;;;8.48;;
21848;SDS011;11089;49.852;19.700;2023-05-20T03:09:43;16.10;;;9.25;;
21848;SDS011;11089;49.852;19.700;2023-05-20T03:12:44;14.80;;;8.45;;
21848;SDS011;11089;49.852;19.700;2023-05-20T03:15:45;13.02;;;7.30;;
21848;SDS011;11089;49.852;19.700;2023-05-20T03:18:46;15.95;;;8.38;;
21848;SDS011;11089;49.852;19.700;2023-05-20T03:21:47;14.13;;;7.90;;
21848;SDS011;11089;49.852;19.700;2023-05-20T03:24:49;15.73;;;7.75;;
21848;SDS011;11089;49.852;19.700;2023-05-20T03:27:51;13.75;;;7.28;;
21848;SDS011;11089;49.852;19.700;2023-05-20T03:30:52;16.10;;;8.55;;
21848;SDS011;11089;49.852;19.700;2023-05-20T03:33:53;12.32;;;7.30;;
21848;SDS011;11089;49.852;19.700;2023-05-20T03:36:54;14.80;;;7.65;;
21848;SDS011;11089;49.852;19.700;2023-05-20T03:39:56;11.75;;;7.28;;
21848;SDS011;11089;49.852;19.700;2023-05-20T03:42:57;12.88;;;8.05;;
21848;SDS011;11089;49.852;19.700;2023-05-20T03:45:58;17.75;;;8.68;;
21848;SDS011;11089;49.852;19.700;2023-05-20T03:48:59;14.07;;;8.15;;
21848;SDS011;11089;49.852;19.700;2023-05-20T03:52:01;14.85;;;7.95;;
21848;SDS011;11089;49.852;19.700;2023-05-20T03:55:03;16.55;;;8.43;;
21848;SDS011;11089;49.852;19.700;2023-05-20T03:58:04;14.18;;;7.47;;
21848;SDS011;11089;49.852;19.700;2023-05-20T04:01:05;13.30;;;7.38;;
21848;SDS011;11089;49.852;19.700;2023-05-20T04:04:06;11.80;;;7.20;;
21848;SDS011;11089;49.852;19.700;2023-05-20T04:07:06;12.57;;;7.80;;
21848;SDS011;11089;49.852;19.700;2023-05-20T04:10:08;12.57;;;7.72;;
21848;SDS011;11089;49.852;19.700;2023-05-20T04:13:09;14.90;;;7.20;;
21848;SDS011;11089;49.852;19.700;2023-05-20T04:16:11;12.60;;;7.60;;
21848;SDS011;11089;49.852;19.700;2023-05-20T04:19:11;12.50;;;7.57;;
21848;SDS011;11089;49.852;19.700;2023-05-20T04:22:12;11.15;;;7.65;;
21848;SDS011;11089;49.852;19.700;2023-05-20T04:25:13;14.20;;;7.07;;
21848;SDS011;11089;49.852;19.700;2023-05-20T04:28:14;14.98;;;7.47;;
21848;SDS011;11089;49.852;19.700;2023-05-20T04:31:15;12.93;;;7.57;;
21848;SDS011;11089;49.852;19.700;2023-05-20T04:34:17;13.95;;;8.02;;
21848;SDS011;11089;49.852;19.700;2023-05-20T04:37:25;13.60;;;7.88;;
21848;SDS011;11089;49.852;19.700;2023-05-20T04:40:27;12.55;;;7.18;;
21848;SDS011;11089;49.852;19.700;2023-05-20T04:43:28;13.35;;;7.78;;
21848;SDS011;11089;49.852;19.700;2023-05-20T04:46:29;13.95;;;8.07;;
21848;SDS011;11089;49.852;19.700;2023-05-20T04:49:30;15.05;;;8.73;;
21848;SDS011;11089;49.852;19.700;2023-05-20T04:52:31;12.02;;;7.03;;
21848;SDS011;11089;49.852;19.700;2023-05-20T04:55:32;14.82;;;8.40;;
21848;SDS011;11089;49.852;19.700;2023-05-20T04:58:33;11.60;;;7.65;;
21848;SDS011;11089;49.852;19.700;2023-05-20T05:01:35;12.95;;;7.82;;
21848;SDS011;11089;49.852;19.700;2023-05-20T05:04:36;13.48;;;7.63;;
21848;SDS011;11089;49.852;19.700;2023-05-20T05:07:37;9.93;;;6.97;;
21848;SDS011;11089;49.852;19.700;2023-05-20T05:10:38;14.57;;;7.97;;
21848;SDS011;11089;49.852;19.700;2023-05-20T05:13:39;12.50;;;7.38;;
21848;SDS011;11089;49.852;19.700;2023-05-20T05:16:40;10.38;;;6.32;;
21848;SDS011;11089;49.852;19.700;2023-05-20T05:19:41;11.77;;;6.63;;
21848;SDS011;11089;49.852;19.700;2023-05-20T05:22:42;11.55;;;7.85;;
21848;SDS011;11089;49.852;19.700;2023-05-20T05:25:43;13.40;;;7.78;;
21848;SDS011;11089;49.852;19.700;2023-05-20T05:28:44;13.10;;;7.30;;
21848;SDS011;11089;49.852;19.700;2023-05-20T05:31:45;10.82;;;6.57;;
21848;SDS011;11089;49.852;19.700;2023-05-20T05:34:46;11.57;;;6.70;;
21848;SDS011;11089;49.852;19.700;2023-05-20T05:37:47;10.32;;;6.38;;
21848;SDS011;11089;49.852;19.700;2023-05-20T05:40:48;9.15;;;5.75;;
21848;SDS011;11089;49.852;19.700;2023-05-20T05:43:49;10.98;;;6.20;;
21848;SDS011;11089;49.852;19.700;2023-05-20T05:46:50;8.75;;;5.78;;
21848;SDS011;11089;49.852;19.700;2023-05-20T05:49:51;9.32;;;6.20;;
21848;SDS011;11089;49.852;19.700;2023-05-20T05:52:52;7.97;;;5.63;;
21848;SDS011;11089;49.852;19.700;2023-05-20T05:55:53;9.38;;;5.57;;
21848;SDS011;11089;49.852;19.700;2023-05-20T05:58:54;8.70;;;5.75;;
21848;SDS011;11089;49.852;19.700;2023-05-20T06:01:55;8.00;;;5.65;;
21848;SDS011;11089;49.852;19.700;2023-05-20T06:04:56;7.68;;;5.78;;
21848;SDS011;11089;49.852;19.700;2023-05-20T06:07:56;8.13;;;5.47;;
21848;SDS011;11089;49.852;19.700;2023-05-20T06:10:57;6.80;;;5.20;;
21848;SDS011;11089;49.852;19.700;2023-05-20T06:13:58;7.68;;;5.63;;
21848;SDS011;11089;49.852;19.700;2023-05-20T06:17:00;8.20;;;5.18;;
21848;SDS011;11089;49.852;19.700;2023-05-20T06:20:02;8.48;;;4.95;;
21848;SDS011;11089;49.852;19.700;2023-05-20T06:23:03;6.72;;;5.30;;
21848;SDS011;11089;49.852;19.700;2023-05-20T06:26:04;7.60;;;5.93;;
21848;SDS011;11089;49.852;19.700;2023-05-20T06:29:05;6.90;;;5.20;;
21848;SDS011;11089;49.852;19.700;2023-05-20T06:32:07;8.57;;;5.50;;
21848;SDS011;11089;49.852;19.700;2023-05-20T06:35:08;9.25;;;6.20;;
21848;SDS011;11089;49.852;19.700;2023-05-20T06:38:09;7.95;;;5.40;;
21848;SDS011;11089;49.852;19.700;2023-05-20T06:41:10;7.53;;;5.43;;
21848;SDS011;11089;49.852;19.700;2023-05-20T06:44:11;6.30;;;5.28;;
21848;SDS011;11089;49.852;19.700;2023-05-20T06:47:15;8.15;;;5.50;;
21848;SDS011;11089;49.852;19.700;2023-05-20T06:50:17;7.13;;;5.20;;
21848;SDS011;11089;49.852;19.700;2023-05-20T06:53:18;7.72;;;5.72;;
21848;SDS011;11089;49.852;19.700;2023-05-20T06:56:19;9.15;;;6.13;;
21848;SDS011;11089;49.852;19.700;2023-05-20T06:59:20;8.10;;;5.90;;
21848;SDS011;11089;49.852;19.700;2023-05-20T07:02:21;10.80;;;6.53;;
21848;SDS011;11089;49.852;19.700;2023-05-20T07:05:22;8.32;;;5.97;;
21848;SDS011;11089;49.852;19.700;2023-05-20T07:08:23;8.05;;;5.45;;
21848;SDS011;11089;49.852;19.700;2023-05-20T07:11:24;10.48;;;7.18;;
21848;SDS011;11089;49.852;19.700;2023-05-20T07:14:25;8.70;;;5.97;;
21848;SDS011;11089;49.852;19.700;2023-05-20T07:17:26;9.55;;;6.72;;
21848;SDS011;11089;49.852;19.700;2023-05-20T07:20:28;10.48;;;7.25;;
21848;SDS011;11089;49.852;19.700;2023-05-20T07:23:30;9.10;;;6.35;;
21848;SDS011;11089;49.852;19.700;2023-05-20T07:26:30;9.52;;;6.47;;
21848;SDS011;11089;49.852;19.700;2023-05-20T07:29:35;11.13;;;7.28;;
21848;SDS011;11089;49.852;19.700;2023-05-20T07:32:37;11.52;;;6.90;;
21848;SDS011;11089;49.852;19.700;2023-05-20T07:35:38;9.20;;;6.88;;
21848;SDS011;11089;49.852;19.700;2023-05-20T07:38:39;11.57;;;6.50;;
21848;SDS011;11089;49.852;19.700;2023-05-20T07:41:40;9.43;;;6.50;;
21848;SDS011;11089;49.852;19.700;2023-05-20T07:44:41;10.40;;;6.53;;
21848;SDS011;11089;49.852;19.700;2023-05-20T07:47:43;8.30;;;6.32;;
21848;SDS011;11089;49.852;19.700;2023-05-20T07:50:43;11.02;;;7.13;;
21848;SDS011;11089;49.852;19.700;2023-05-20T07:53:44;11.95;;;7.88;;
21848;SDS011;11089;49.852;19.700;2023-05-20T07:56:45;14.57;;;7.90;;
21848;SDS011;11089;49.852;19.700;2023-05-20T07:59:46;12.18;;;7.32;;
21848;SDS011;11089;49.852;19.700;2023-05-20T08:02:47;10.50;;;7.13;;
21848;SDS011;11089;49.852;19.700;2023-05-20T08:05:48;11.07;;;7.63;;
21848;SDS011;11089;49.852;19.700;2023-05-20T08:08:49;12.35;;;8.45;;
21848;SDS011;11089;49.852;19.700;2023-05-20T08:11:53;9.77;;;7.03;;
21848;SDS011;11089;49.852;19.700;2023-05-20T08:14:54;11.77;;;7.43;;
21848;SDS011;11089;49.852;19.700;2023-05-20T08:17:55;12.68;;;7.63;;
21848;SDS011;11089;49.852;19.700;2023-05-20T08:20:56;10.55;;;7.63;;
21848;SDS011;11089;49.852;19.700;2023-05-20T08:23:58;10.73;;;6.85;;
21848;SDS011;11089;49.852;19.700;2023-05-20T08:26:59;12.20;;;7.68;;
21848;SDS011;11089;49.852;19.700;2023-05-20T08:30:00;12.40;;;8.40;;
21848;SDS011;11089;49.852;19.700;2023-05-20T08:33:01;13.23;;;8.63;;
21848;SDS011;11089;49.852;19.700;2023-05-20T08:36:02;14.57;;;9.13;;
21848;SDS011;11089;49.852;19.700;2023-05-20T08:39:03;13.52;;;8.75;;
21848;SDS011;11089;49.852;19.700;2023-05-20T08:42:04;14.95;;;9.45;;
21848;SDS011;11089;49.852;19.700;2023-05-20T08:45:07;12.23;;;8.07;;
21848;SDS011;11089;49.852;19.700;2023-05-20T08:48:11;12.65;;;8.52;;
21848;SDS011;11089;49.852;19.700;2023-05-20T08:51:12;15.18;;;9.25;;
21848;SDS011;11089;49.852;19.700;2023-05-20T08:54:15;12.52;;;8.52;;
21848;SDS011;11089;49.852;19.700;2023-05-20T08:57:19;12.05;;;8.50;;
21848;SDS011;11089;49.852;19.700;2023-05-20T09:00:22;15.40;;;10.38;;
21848;SDS011;11089;49.852;19.700;2023-05-20T09:03:27;14.63;;;9.30;;
21848;SDS011;11089;49.852;19.700;2023-05-20T09:06:29;14.73;;;9.23;;
21848;SDS011;11089;49.852;19.700;2023-05-20T09:09:42;19.50;;;9.85;;
21848;SDS011;11089;49.852;19.700;2023-05-20T09:12:43;15.48;;;9.52;;
21848;SDS011;11089;49.852;19.700;2023-05-20T09:15:44;13.40;;;9.00;;
21848;SDS011;11089;49.852;19.700;2023-05-20T09:18:45;13.00;;;7.55;;
21848;SDS011;11089;49.852;19.700;2023-05-20T09:21:46;14.30;;;9.38;;
21848;SDS011;11089;49.852;19.700;2023-05-20T09:24:47;16.83;;;10.73;;
21848;SDS011;11089;49.852;19.700;2023-05-20T09:27:48;14.90;;;9.40;;
21848;SDS011;11089;49.852;19.700;2023-05-20T09:30:49;14.57;;;9.07;;
21848;SDS011;11089;49.852;19.700;2023-05-20T09:33:50;15.07;;;9.57;;
21848;SDS011;11089;49.852;19.700;2023-05-20T09:36:51;14.20;;;9.85;;
21848;SDS011;11089;49.852;19.700;2023-05-20T09:39:54;14.25;;;9.82;;
21848;SDS011;11089;49.852;19.700;2023-05-20T09:43:02;14.90;;;10.05;;
21848;SDS011;11089;49.852;19.700;2023-05-20T09:46:05;16.38;;;10.25;;
21848;SDS011;11089;49.852;19.700;2023-05-20T09:49:10;14.43;;;9.20;;
21848;SDS011;11089;49.852;19.700;2023-05-20T09:52:15;16.15;;;9.40;;
21848;SDS011;11089;49.852;19.700;2023-05-20T09:55:18;16.45;;;10.25;;
21848;SDS011;11089;49.852;19.700;2023-05-20T09:58:21;14.30;;;8.90;;
21848;SDS011;11089;49.852;19.700;2023-05-20T10:01:23;14.43;;;9.52;;
21848;SDS011;11089;49.852;19.700;2023-05-20T10:04:24;16.48;;;10.35;;
21848;SDS011;11089;49.852;19.700;2023-05-20T10:10:46;17.23;;;10.63;;
21848;SDS011;11089;49.852;19.700;2023-05-20T10:17:02;17.75;;;9.77;;
21848;SDS011;11089;49.852;19.700;2023-05-20T10:20:09;14.95;;;10.02;;
21848;SDS011;11089;49.852;19.700;2023-05-20T10:26:43;15.80;;;10.27;;
21848;SDS011;11089;49.852;19.700;2023-05-20T10:29:55;18.92;;;10.70;;
21848;SDS011;11089;49.852;19.700;2023-05-20T10:32:57;15.38;;;10.32;;
21848;SDS011;11089;49.852;19.700;2023-05-20T10:36:04;14.48;;;10.43;;
21848;SDS011;11089;49.852;19.700;2023-05-20T10:39:05;27.98;;;10.55;;
21848;SDS011;11089;49.852;19.700;2023-05-20T10:42:06;19.92;;;10.48;;
21848;SDS011;11089;49.852;19.700;2023-05-20T10:45:08;17.58;;;10.82;;
21848;SDS011;11089;49.852;19.700;2023-05-20T10:48:10;17.08;;;11.77;;
21848;SDS011;11089;49.852;19.700;2023-05-20T10:51:20;19.60;;;12.13;;
21848;SDS011;11089;49.852;19.700;2023-05-20T10:54:21;18.10;;;10.93;;
21848;SDS011;11089;49.852;19.700;2023-05-20T10:57:22;15.40;;;9.98;;
21848;SDS011;11089;49.852;19.700;2023-05-20T11:00:25;15.98;;;10.48;;
21848;SDS011;11089;49.852;19.700;2023-05-20T11:03:26;14.80;;;10.32;;
21848;SDS011;11089;49.852;19.700;2023-05-20T11:06:29;15.98;;;9.98;;
21848;SDS011;11089;49.852;19.700;2023-05-20T11:09:30;17.02;;;10.25;;
21848;SDS011;11089;49.852;19.700;2023-05-20T11:12:32;16.38;;;10.77;;
21848;SDS011;11089;49.852;19.700;2023-05-20T11:15:34;16.02;;;10.48;;
21848;SDS011;11089;49.852;19.700;2023-05-20T11:18:35;23.10;;;12.25;;
21848;SDS011;11089;49.852;19.700;2023-05-20T11:21:41;19.95;;;12.70;;
21848;SDS011;11089;49.852;19.700;2023-05-20T11:24:43;19.77;;;12.98;;
21848;SDS011;11089;49.852;19.700;2023-05-20T11:27:45;16.80;;;12.02;;
21848;SDS011;11089;49.852;19.700;2023-05-20T11:30:47;18.42;;;11.95;;
21848;SDS011;11089;49.852;19.700;2023-05-20T11:33:49;18.80;;;11.98;;
21848;SDS011;11089;49.852;19.700;2023-05-20T11:36:57;21.02;;;12.80;;
21848;SDS011;11089;49.852;19.700;2023-05-20T11:40:16;21.25;;;12.98;;
21848;SDS011;11089;49.852;19.700;2023-05-20T11:43:26;21.95;;;12.98;;
21848;SDS011;11089;49.852;19.700;2023-05-20T11:46:27;21.67;;;13.50;;
21848;SDS011;11089;49.852;19.700;2023-05-20T11:49:28;21.17;;;13.13;;
21848;SDS011;11089;49.852;19.700;2023-05-20T11:52:32;21.13;;;13.15;;
21848;SDS011;11089;49.852;19.700;2023-05-20T11:55:43;21.52;;;13.90;;
21848;SDS011;11089;49.852;19.700;2023-05-20T11:58:49;21.90;;;13.95;;
21848;SDS011;11089;49.852;19.700;2023-05-20T12:01:50;23.33;;;14.25;;
21848;SDS011;11089;49.852;19.700;2023-05-20T12:04:51;22.90;;;14.90;;
21848;SDS011;11089;49.852;19.700;2023-05-20T12:07:55;24.58;;;15.02;;
21848;SDS011;11089;49.852;19.700;2023-05-20T12:11:01;24.65;;;14.40;;
21848;SDS011;11089;49.852;19.700;2023-05-20T12:14:09;22.95;;;13.85;;
21848;SDS011;11089;49.852;19.700;2023-05-20T12:17:10;19.65;;;13.23;;
21848;SDS011;11089;49.852;19.700;2023-05-20T12:20:15;24.55;;;14.95;;
21848;SDS011;11089;49.852;19.700;2023-05-20T12:23:17;21.60;;;13.77;;
21848;SDS011;11089;49.852;19.700;2023-05-20T12:26:18;25.88;;;16.20;;
21848;SDS011;11089;49.852;19.700;2023-05-20T12:29:19;20.52;;;14.45;;
21848;SDS011;11089;49.852;19.700;2023-05-20T12:32:20;22.58;;;13.40;;
21848;SDS011;11089;49.852;19.700;2023-05-20T12:35:34;29.30;;;15.30;;
21848;SDS011;11089;49.852;19.700;2023-05-20T12:38:40;32.13;;;16.42;;
21848;SDS011;11089;49.852;19.700;2023-05-20T12:41:41;23.77;;;14.50;;
21848;SDS011;11089;49.852;19.700;2023-05-20T12:44:42;22.70;;;15.32;;
21848;SDS011;11089;49.852;19.700;2023-05-20T12:47:43;23.15;;;14.30;;
21848;SDS011;11089;49.852;19.700;2023-05-20T12:50:45;20.30;;;13.85;;
21848;SDS011;11089;49.852;19.700;2023-05-20T12:53:45;24.67;;;14.93;;
21848;SDS011;11089;49.852;19.700;2023-05-20T12:56:46;24.38;;;15.95;;
21848;SDS011;11089;49.852;19.700;2023-05-20T12:59:47;25.65;;;15.90;;
21848;SDS011;11089;49.852;19.700;2023-05-20T13:02:51;25.20;;;16.15;;
21848;SDS011;11089;49.852;19.700;2023-05-20T13:05:53;22.42;;;15.98;;
21848;SDS011;11089;49.852;19.700;2023-05-20T13:08:54;21.85;;;13.90;;
21848;SDS011;11089;49.852;19.700;2023-05-20T13:11:55;21.65;;;14.93;;
21848;SDS011;11089;49.852;19.700;2023-05-20T13:14:56;26.10;;;14.43;;
21848;SDS011;11089;49.852;19.700;2023-05-20T13:17:57;22.40;;;14.60;;
21848;SDS011;11089;49.852;19.700;2023-05-20T13:21:00;23.55;;;14.73;;
21848;SDS011;11089;49.852;19.700;2023-05-20T13:24:01;23.08;;;13.60;;
21848;SDS011;11089;49.852;19.700;2023-05-20T13:27:03;20.92;;;13.98;;
21848;SDS011;11089;49.852;19.700;2023-05-20T13:30:05;19.92;;;13.88;;
21848;SDS011;11089;49.852;19.700;2023-05-20T13:33:07;22.95;;;13.95;;
21848;SDS011;11089;49.852;19.700;2023-05-20T13:36:08;19.83;;;13.50;;
21848;SDS011;11089;49.852;19.700;2023-05-20T13:39:10;24.40;;;14.13;;
21848;SDS011;11089;49.852;19.700;2023-05-20T13:42:11;20.58;;;13.18;;
21848;SDS011;11089;49.852;19.700;2023-05-20T13:45:12;25.08;;;14.20;;
21848;SDS011;11089;49.852;19.700;2023-05-20T13:48:13;21.58;;;14.75;;
21848;SDS011;11089;49.852;19.700;2023-05-20T13:51:13;21.30;;;13.15;;
21848;SDS011;11089;49.852;19.700;2023-05-20T13:54:15;22.75;;;15.70;;
21848;SDS011;11089;49.852;19.700;2023-05-20T13:57:16;22.77;;;14.07;;
21848;SDS011;11089;49.852;19.700;2023-05-20T14:00:16;21.23;;;13.65;;
21848;SDS011;11089;49.852;19.700;2023-05-20T14:03:17;26.80;;;14.90;;
21848;SDS011;11089;49.852;19.700;2023-05-20T14:06:18;21.27;;;13.40;;
21848;SDS011;11089;49.852;19.700;2023-05-20T14:09:19;20.00;;;13.63;;
21848;SDS011;11089;49.852;19.700;2023-05-20T14:12:20;24.75;;;14.63;;
21848;SDS011;11089;49.852;19.700;2023-05-20T14:15:23;23.45;;;14.30;;
21848;SDS011;11089;49.852;19.700;2023-05-20T14:18:25;20.67;;;14.98;;
21848;SDS011;11089;49.852;19.700;2023-05-20T14:21:25;22.88;;;14.23;;
21848;SDS011;11089;49.852;19.700;2023-05-20T14:24:26;24.00;;;13.52;;
21848;SDS011;11089;49.852;19.700;2023-05-20T14:27:28;22.05;;;13.77;;
21848;SDS011;11089;49.852;19.700;2023-05-20T14:30:29;21.25;;;14.40;;
21848;SDS011;11089;49.852;19.700;2023-05-20T14:33:30;21.00;;;14.80;;
21848;SDS011;11089;49.852;19.700;2023-05-20T14:36:33;24.75;;;13.45;;
21848;SDS011;11089;49.852;19.700;2023-05-20T14:39:37;20.50;;;13.15;;
21848;SDS011;11089;49.852;19.700;2023-05-20T14:42:38;17.77;;;12.63;;
21848;SDS011;11089;49.852;19.700;2023-05-20T14:45:39;19.38;;;12.48;;
21848;SDS011;11089;49.852;19.700;2023-05-20T14:48:40;16.33;;;12.02;;
21848;SDS011;11089;49.852;19.700;2023-05-20T14:51:41;18.58;;;12.25;;
21848;SDS011;11089;49.852;19.700;2023-05-20T14:54:42;18.25;;;13.35;;
21848;SDS011;11089;49.852;19.700;2023-05-20T14:57:43;23.70;;;12.30;;
21848;SDS011;11089;49.852;19.700;2023-05-20T15:00:44;21.95;;;13.65;;
21848;SDS011;11089;49.852;19.700;2023-05-20T15:03:45;19.52;;;13.00;;
21848;SDS011;11089;49.852;19.700;2023-05-20T15:06:46;16.13;;;11.50;;
21848;SDS011;11089;49.852;19.700;2023-05-20T15:09:47;20.52;;;13.50;;
21848;SDS011;11089;49.852;19.700;2023-05-20T15:12:49;19.73;;;12.90;;
21848;SDS011;11089;49.852;19.700;2023-05-20T15:15:50;19.05;;;12.77;;
21848;SDS011;11089;49.852;19.700;2023-05-20T15:18:51;17.08;;;12.20;;
21848;SDS011;11089;49.852;19.700;2023-05-20T15:21:52;21.45;;;12.48;;
21848;SDS011;11089;49.852;19.700;2023-05-20T15:24:54;19.35;;;12.30;;
21848;SDS011;11089;49.852;19.700;2023-05-20T15:27:55;18.50;;;12.75;;
21848;SDS011;11089;49.852;19.700;2023-05-20T15:30:55;16.65;;;12.00;;
21848;SDS011;11089;49.852;19.700;2023-05-20T15:33:56;19.00;;;11.25;;
21848;SDS011;11089;49.852;19.700;2023-05-20T15:36:57;19.70;;;12.32;;
21848;SDS011;11089;49.852;19.700;2023-05-20T15:39:58;17.75;;;11.20;;
21848;SDS011;11089;49.852;19.700;2023-05-20T15:42:59;19.40;;;11.38;;
21848;SDS011;11089;49.852;19.700;2023-05-20T15:46:00;19.15;;;11.95;;
21848;SDS011;11089;49.852;19.700;2023-05-20T15:49:01;19.77;;;12.38;;
21848;SDS011;11089;49.852;19.700;2023-05-20T15:52:02;17.95;;;12.07;;
21848;SDS011;11089;49.852;19.700;2023-05-20T15:55:03;16.23;;;11.50;;
21848;SDS011;11089;49.852;19.700;2023-05-20T15:58:04;18.40;;;13.32;;
21848;SDS011;11089;49.852;19.700;2023-05-20T16:01:05;18.58;;;12.52;;
21848;SDS011;11089;49.852;19.700;2023-05-20T16:04:08;18.52;;;12.07;;
21848;SDS011;11089;49.852;19.700;2023-05-20T16:07:09;16.05;;;12.13;;
21848;SDS011;11089;49.852;19.700;2023-05-20T16:10:10;19.00;;;12.10;;
21848;SDS011;11089;49.852;19.700;2023-05-20T16:13:11;19.73;;;11.80;;
21848;SDS011;11089;49.852;19.700;2023-05-20T16:16:12;17.15;;;11.80;;
21848;SDS011;11089;49.852;19.700;2023-05-20T16:19:13;18.20;;;11.25;;
21848;SDS011;11089;49.852;19.700;2023-05-20T16:22:14;15.90;;;11.63;;
21848;SDS011;11089;49.852;19.700;2023-05-20T16:25:15;18.65;;;11.93;;
21848;SDS011;11089;49.852;19.700;2023-05-20T16:28:16;17.48;;;12.25;;
21848;SDS011;11089;49.852;19.700;2023-05-20T16:31:17;16.77;;;11.55;;
21848;SDS011;11089;49.852;19.700;2023-05-20T16:34:21;18.98;;;12.30;;
21848;SDS011;11089;49.852;19.700;2023-05-20T16:37:26;17.58;;;11.77;;
21848;SDS011;11089;49.852;19.700;2023-05-20T16:40:27;18.42;;;12.30;;
21848;SDS011;11089;49.852;19.700;2023-05-20T16:43:28;18.92;;;11.52;;
21848;SDS011;11089;49.852;19.700;2023-05-20T16:46:29;22.30;;;12.88;;
21848;SDS011;11089;49.852;19.700;2023-05-20T16:49:30;18.23;;;12.02;;
21848;SDS011;11089;49.852;19.700;2023-05-20T16:52:31;18.38;;;12.20;;
21848;SDS011;11089;49.852;19.700;2023-05-20T16:55:34;17.05;;;11.68;;
21848;SDS011;11089;49.852;19.700;2023-05-20T16:58:34;17.90;;;11.40;;
21848;SDS011;11089;49.852;19.700;2023-05-20T17:01:36;23.38;;;12.80;;
21848;SDS011;11089;49.852;19.700;2023-05-20T17:04:38;21.27;;;12.18;;
21848;SDS011;11089;49.852;19.700;2023-05-20T17:07:39;17.52;;;10.93;;
21848;SDS011;11089;49.852;19.700;2023-05-20T17:10:40;25.50;;;11.68;;
21848;SDS011;11089;49.852;19.700;2023-05-20T17:13:41;16.40;;;10.95;;
21848;SDS011;11089;49.852;19.700;2023-05-20T17:16:44;24.10;;;10.98;;
21848;SDS011;11089;49.852;19.700;2023-05-20T17:19:48;19.58;;;12.05;;
21848;SDS011;11089;49.852;19.700;2023-05-20T17:22:49;16.15;;;10.30;;
21848;SDS011;11089;49.852;19.700;2023-05-20T17:25:51;16.55;;;11.55;;
21848;SDS011;11089;49.852;19.700;2023-05-20T17:28:52;16.73;;;10.93;;
21848;SDS011;11089;49.852;19.700;2023-05-20T17:31:53;23.70;;;16.75;;
21848;SDS011;11089;49.852;19.700;2023-05-20T17:34:53;100.60;;;61.72;;
21848;SDS011;11089;49.852;19.700;2023-05-20T17:37:54;67.75;;;47.65;;
21848;SDS011;11089;49.852;19.700;2023-05-20T17:40:55;44.05;;;29.67;;
21848;SDS011;11089;49.852;19.700;2023-05-20T17:43:56;44.97;;;29.50;;
21848;SDS011;11089;49.852;19.700;2023-05-20T17:46:57;31.92;;;22.55;;
21848;SDS011;11089;49.852;19.700;2023-05-20T17:49:58;55.13;;;34.88;;